createdAt,value
2023-03-29T00:00:47.279Z,100800.78
2023-03-29T00:03:17.258Z,100799.88
2023-03-29T00:05:44.909Z,100797.03
2023-03-29T00:08:14.766Z,100797.91
2023-03-29T00:10:43.877Z,100803.28
2023-03-29T00:13:12.967Z,100796.41
2023-03-29T00:15:44.331Z,100804.06
2023-03-29T00:18:15.936Z,100805.41
2023-03-29T00:20:53.853Z,100802.97
2023-03-29T00:23:20.395Z,100801.66
2023-03-29T00:25:46.971Z,100796.09
2023-03-29T00:28:14.730Z,100795.38
2023-03-29T00:30:41.488Z,100800.41
2023-03-29T00:33:08.657Z,100804.50
2023-03-29T00:35:38.596Z,100804.41
2023-03-29T00:38:08.292Z,100793.22
2023-03-29T00:40:42.323Z,100801.78
2023-03-29T00:43:15.932Z,100796.31
2023-03-29T00:45:42.549Z,100800.59
2023-03-29T00:48:15.874Z,100798.78
2023-03-29T00:51:19.015Z,100800.78
2023-03-29T00:53:59.063Z,100791.31
2023-03-29T00:56:41.785Z,100793.00
2023-03-29T00:59:38.185Z,100794.34
2023-03-29T01:02:10.688Z,100789.34
2023-03-29T01:04:45.638Z,100786.47
2023-03-29T01:07:21.745Z,100786.88
2023-03-29T01:09:56.000Z,100785.34
2023-03-29T01:12:30.046Z,100782.44
2023-03-29T01:15:02.529Z,100778.03
2023-03-29T01:17:31.695Z,100768.88
2023-03-29T01:20:19.151Z,100767.75
2023-03-29T01:22:49.076Z,100775.22
2023-03-29T01:26:00.217Z,100768.19
2023-03-29T01:28:45.873Z,100772.88
2023-03-29T01:31:21.962Z,100765.84
2023-03-29T01:34:00.461Z,100767.59
2023-03-29T01:36:38.265Z,100764.56
2023-03-29T01:39:07.077Z,100761.22
2023-03-29T01:42:05.626Z,100772.25
2023-03-29T01:44:47.395Z,100780.69
2023-03-29T01:47:32.500Z,100774.22
2023-03-29T01:49:59.219Z,100773.78
2023-03-29T01:52:37.604Z,100770.47
2023-03-29T01:55:14.858Z,100777.28
2023-03-29T01:57:48.575Z,100768.47
2023-03-29T02:00:19.212Z,100771.31
2023-03-29T02:02:50.422Z,100771.78
2023-03-29T02:05:22.458Z,100773.75
2023-03-29T02:07:52.998Z,100776.13
2023-03-29T02:10:21.424Z,100768.34
2023-03-29T02:12:48.236Z,100777.47
2023-03-29T02:15:21.468Z,100769.78
2023-03-29T02:17:49.496Z,100771.06
2023-03-29T02:20:20.570Z,100762.94
2023-03-29T02:22:52.206Z,100768.78
2023-03-29T02:25:22.531Z,100770.63
2023-03-29T02:27:49.501Z,100782.69
2023-03-29T02:30:18.797Z,100776.41
2023-03-29T02:32:52.360Z,100766.88
2023-03-29T02:35:34.364Z,100772.91
2023-03-29T02:38:06.456Z,100772.00
2023-03-29T02:40:37.687Z,100773.94
2023-03-29T02:43:07.725Z,100775.72
2023-03-29T02:45:39.947Z,100773.69
2023-03-29T02:48:12.842Z,100777.47
2023-03-29T02:50:44.963Z,100783.38
2023-03-29T02:53:24.208Z,100776.56
2023-03-29T02:55:51.762Z,100783.69
2023-03-29T02:58:20.642Z,100773.44
2023-03-29T03:00:49.057Z,100784.47
2023-03-29T03:03:15.889Z,100788.84
2023-03-29T03:05:47.754Z,100797.63
2023-03-29T03:08:14.524Z,100795.88
2023-03-29T03:10:41.453Z,100792.38
2023-03-29T03:13:12.895Z,100798.81
2023-03-29T03:15:42.970Z,100799.69
2023-03-29T03:18:10.642Z,100806.75
2023-03-29T03:20:37.306Z,100804.34
2023-03-29T03:23:08.978Z,100799.06
2023-03-29T03:25:38.186Z,100806.56
2023-03-29T03:28:05.096Z,100800.28
2023-03-29T03:30:31.734Z,100805.13
2023-03-29T03:32:58.318Z,100806.34
2023-03-29T03:35:25.295Z,100803.28
2023-03-29T03:37:54.195Z,100799.19
2023-03-29T03:40:20.871Z,100802.38
2023-03-29T03:42:50.022Z,100802.81
2023-03-29T03:45:16.725Z,100804.38
2023-03-29T03:47:48.670Z,100807.53
2023-03-29T03:50:15.482Z,100805.25
2023-03-29T03:52:44.850Z,100811.81
2023-03-29T03:55:12.114Z,100818.19
2023-03-29T03:57:38.659Z,100814.13
2023-03-29T04:00:21.069Z,100812.47
2023-03-29T04:02:48.544Z,100812.91
2023-03-29T04:05:20.534Z,100811.03
2023-03-29T04:07:52.606Z,100817.69
2023-03-29T04:10:19.292Z,100818.72
2023-03-29T04:12:46.009Z,100820.38
2023-03-29T04:15:17.871Z,100813.78
2023-03-29T04:17:47.490Z,100813.13
2023-03-29T04:20:18.809Z,100812.91
2023-03-29T04:22:45.380Z,100807.19
2023-03-29T04:25:14.445Z,100806.56
2023-03-29T04:27:44.796Z,100805.31
2023-03-29T04:30:12.318Z,100796.91
2023-03-29T04:32:38.928Z,100801.72
2023-03-29T04:35:06.157Z,100796.66
2023-03-29T04:37:35.198Z,100802.69
2023-03-29T04:40:02.535Z,100805.44
2023-03-29T04:42:29.454Z,100811.16
2023-03-29T04:44:58.552Z,100806.19
2023-03-29T04:47:25.236Z,100809.97
2023-03-29T04:49:51.824Z,100813.47
2023-03-29T04:52:18.402Z,100805.56
2023-03-29T04:54:47.511Z,100814.34
2023-03-29T04:57:17.101Z,100815.56
2023-03-29T04:59:46.462Z,100819.31
2023-03-29T05:02:15.607Z,100816.22
2023-03-29T05:04:42.216Z,100811.59
2023-03-29T05:07:08.872Z,100821.94
2023-03-29T05:09:35.671Z,100823.47
2023-03-29T05:12:04.981Z,100823.69
2023-03-29T05:14:31.564Z,100826.34
2023-03-29T07:25:48.305Z,100874.47
2023-03-29T07:28:17.582Z,100872.78
2023-03-29T07:30:44.200Z,100882.09
2023-03-29T07:33:10.854Z,100880.81
2023-03-29T07:35:38.333Z,100883.16
2023-03-29T07:38:05.665Z,100886.88
2023-03-29T07:40:34.622Z,100879.31
2023-03-29T07:43:09.111Z,100878.75
2023-03-29T07:45:42.360Z,100879.69
2023-03-29T07:48:11.430Z,100883.69
2023-03-29T07:50:40.363Z,100867.34
2023-03-29T07:53:09.107Z,100880.25
2023-03-29T07:55:35.978Z,100893.50
2023-03-29T07:58:03.588Z,100895.53
2023-03-29T08:00:33.172Z,100897.72
2023-03-29T08:03:03.790Z,100892.63
2023-03-29T08:05:41.192Z,100882.63
2023-03-29T08:08:11.277Z,100893.16
2023-03-29T08:10:56.116Z,100879.44
2023-03-29T08:13:22.714Z,100878.16
2023-03-29T08:15:50.318Z,100883.94
2023-03-29T08:18:17.188Z,100881.84
2023-03-29T08:20:46.070Z,100877.53
2023-03-29T08:23:14.865Z,100876.47
2023-03-29T08:25:49.859Z,100881.38
2023-03-29T08:28:19.097Z,100885.22
2023-03-29T08:30:48.205Z,100884.44
2023-03-29T08:33:26.128Z,100878.75
2023-03-29T08:35:53.174Z,100880.91
2023-03-29T08:38:19.942Z,100882.16
2023-03-29T08:40:48.835Z,100874.53
2023-03-29T08:43:42.747Z,100879.63
2023-03-29T08:46:15.773Z,100883.44
2023-03-29T08:48:51.380Z,100877.41
2023-03-29T08:51:23.105Z,100879.97
2023-03-29T08:53:56.573Z,100878.69
2023-03-29T08:56:28.069Z,100872.16
2023-03-29T08:58:59.363Z,100868.94
2023-03-29T09:01:38.329Z,100854.47
2023-03-29T09:04:23.787Z,100851.91
2023-03-29T09:06:51.779Z,100846.56
2023-03-29T10:10:11.315Z,100774.84
2023-03-29T10:12:38.039Z,100774.72
2023-03-29T10:15:30.428Z,100765.00
2023-03-29T10:18:07.476Z,100760.63
2023-03-29T10:20:39.952Z,100759.59
2023-03-29T10:23:10.870Z,100765.31
2023-03-29T10:25:45.521Z,100769.97
2023-03-29T10:28:21.214Z,100760.75
2023-03-29T10:30:57.138Z,100759.22
2023-03-29T10:33:29.730Z,100753.38
2023-03-29T10:35:57.679Z,100753.19
2023-03-29T10:38:28.002Z,100757.50
2023-03-29T10:41:05.382Z,100747.91
2023-03-29T10:43:41.855Z,100752.94
2023-03-29T10:46:19.722Z,100748.28
2023-03-29T10:48:51.991Z,100747.97
2023-03-29T10:51:19.381Z,100743.81
2023-03-29T10:53:46.654Z,100735.56
2023-03-29T10:56:42.191Z,100740.44
2023-03-29T10:59:17.985Z,100730.34
2023-03-29T11:01:51.674Z,100735.31
2023-03-29T11:04:46.500Z,100739.13
2023-03-29T11:07:31.636Z,100740.91
2023-03-29T11:10:24.717Z,100732.78
2023-03-29T11:12:57.552Z,100722.91
2023-03-29T11:15:55.122Z,100731.81
2023-03-29T11:18:30.588Z,100732.47
2023-03-29T13:12:43.679Z,100617.13
2023-03-29T13:15:19.465Z,100610.31
2023-03-29T13:17:52.245Z,100610.31
2023-03-29T13:20:40.625Z,100602.09
2023-03-29T13:23:19.245Z,100602.66
2023-03-29T13:26:01.408Z,100599.53
2023-03-29T13:28:33.165Z,100602.50
2023-03-29T13:31:24.463Z,100593.94
2023-03-29T18:40:56.160Z,100525.78
2023-03-29T18:43:22.750Z,100538.47
2023-03-29T18:45:53.981Z,100530.28
2023-03-29T18:48:20.624Z,100530.56
2023-03-29T18:50:47.216Z,100532.22
2023-03-29T18:53:14.431Z,100539.09
2023-03-29T18:55:44.988Z,100527.53
2023-03-29T18:58:15.989Z,100538.31
2023-03-29T19:00:42.920Z,100535.22
2023-03-29T19:03:09.840Z,100534.84
2023-03-29T19:05:39.987Z,100535.50
2023-03-29T19:08:08.550Z,100544.50
2023-03-29T19:10:39.262Z,100540.13
2023-03-29T19:13:08.837Z,100538.38
2023-03-29T19:15:40.432Z,100549.63
2023-03-29T19:18:07.967Z,100548.16
2023-03-29T19:20:40.846Z,100541.03
2023-03-29T19:23:07.444Z,100540.53
2023-03-29T19:25:36.545Z,100539.44
2023-03-29T19:28:04.934Z,100544.97
2023-03-29T19:30:34.844Z,100545.41
2023-03-29T19:33:06.403Z,100558.19
2023-03-29T19:35:33.032Z,100555.72
2023-03-29T19:37:59.680Z,100556.69
2023-03-29T19:40:28.524Z,100554.34
2023-03-29T19:42:55.085Z,100541.41
2023-03-29T19:45:23.888Z,100544.94
2023-03-29T19:47:57.727Z,100539.81
2023-03-29T19:50:27.675Z,100540.13
2023-03-29T19:52:54.563Z,100535.97
2023-03-29T19:55:21.809Z,100543.94
2023-03-29T19:57:53.426Z,100534.41
2023-03-29T20:00:24.433Z,100533.47
2023-03-29T20:02:52.572Z,100533.72
2023-03-29T20:05:21.625Z,100529.88
2023-03-29T20:07:54.370Z,100526.00
2023-03-29T20:10:21.212Z,100531.59
2023-03-29T20:12:47.902Z,100526.16
2023-03-29T20:15:16.953Z,100523.50
2023-03-29T20:17:43.566Z,100518.59
2023-03-29T20:20:11.998Z,100518.50
2023-03-29T20:22:42.075Z,100522.53
2023-03-29T20:25:11.952Z,100521.66
2023-03-29T20:27:42.774Z,100521.88
2023-03-29T20:30:16.472Z,100519.41
2023-03-29T20:32:45.405Z,100514.59
2023-03-29T20:35:12.260Z,100519.72
2023-03-29T20:37:43.359Z,100513.06
2023-03-29T20:40:11.255Z,100514.00
2023-03-29T20:42:38.741Z,100509.78
2023-03-29T20:45:06.618Z,100504.75
2023-03-29T20:47:33.264Z,100505.66
2023-03-29T20:50:04.134Z,100502.19
2023-03-29T20:52:30.744Z,100507.16
2023-03-29T20:55:01.860Z,100509.38
2023-03-29T20:57:30.319Z,100511.56
2023-03-29T20:59:59.401Z,100505.69
2023-03-29T21:02:26.323Z,100508.94
2023-03-29T21:05:00.187Z,100508.75
2023-03-29T21:07:26.839Z,100517.56
2023-03-29T21:09:54.160Z,100519.50
2023-03-29T21:12:20.835Z,100509.94
2023-03-29T21:14:49.716Z,100508.53
2023-03-29T21:17:16.382Z,100517.22
2023-03-29T21:19:42.903Z,100515.72
2023-03-29T21:22:09.486Z,100511.69
2023-03-29T21:24:38.558Z,100508.50
2023-03-29T21:27:08.450Z,100508.19
2023-03-29T21:29:37.235Z,100496.34
2023-03-29T21:32:04.602Z,100506.66
2023-03-29T21:34:33.656Z,100500.13
2023-03-29T21:37:00.515Z,100496.56
2023-03-29T21:39:27.805Z,100490.59
2023-03-29T21:41:54.434Z,100491.53
2023-03-29T21:44:21.049Z,100495.22
2023-03-29T21:46:49.868Z,100486.81
2023-03-29T21:49:19.454Z,100488.66
2023-03-29T21:51:46.447Z,100492.66
2023-03-29T21:54:15.577Z,100493.69
2023-03-29T21:56:42.493Z,100489.28
2023-03-29T21:59:09.100Z,100486.53
2023-03-29T22:01:35.711Z,100489.03
2023-03-29T22:04:05.186Z,100493.69
2023-03-29T22:06:34.113Z,100495.38
2023-03-29T22:09:06.384Z,100501.63
2023-03-29T22:11:34.677Z,100502.44
2023-03-29T22:14:04.121Z,100503.53
2023-03-29T22:16:31.412Z,100508.41
2023-03-29T22:18:58.262Z,100497.94
2023-03-29T22:21:27.138Z,100499.91
2023-03-29T22:23:58.519Z,100492.06
2023-03-29T22:26:32.779Z,100494.16
2023-03-29T22:29:00.410Z,100494.91
2023-03-29T22:31:28.643Z,100496.53
2023-03-29T22:33:55.782Z,100498.50
2023-03-29T22:36:27.674Z,100508.41
2023-03-29T22:38:55.065Z,100506.44
2023-03-29T22:41:23.751Z,100511.31
2023-03-29T22:43:53.947Z,100514.34
2023-03-29T22:46:25.444Z,100509.31
2023-03-29T22:48:54.399Z,100509.47
2023-03-29T22:51:21.483Z,100510.84
2023-03-29T22:53:48.096Z,100512.50
2023-03-29T22:56:17.814Z,100508.97
2023-03-29T22:58:46.903Z,100515.31
2023-03-29T23:01:15.820Z,100509.44
2023-03-29T23:03:42.447Z,100507.94
2023-03-29T23:06:09.250Z,100506.44
2023-03-29T23:08:38.374Z,100511.19
2023-03-29T23:11:07.560Z,100510.00
2023-03-29T23:13:36.303Z,100514.56
2023-03-29T23:16:03.839Z,100510.81
2023-03-29T23:18:34.950Z,100508.69
2023-03-29T23:21:02.461Z,100502.72
2023-03-29T23:23:31.917Z,100504.56
2023-03-29T23:26:04.102Z,100507.16
2023-03-29T23:28:34.547Z,100504.91
2023-03-29T23:31:11.768Z,100502.09
2023-03-29T23:33:41.257Z,100506.59
2023-03-29T23:36:12.969Z,100507.47
2023-03-29T23:38:43.542Z,100506.13
2023-03-29T23:41:13.753Z,100506.25
2023-03-29T23:43:42.478Z,100508.19
2023-03-29T23:46:10.762Z,100501.44
2023-03-29T23:48:42.286Z,100505.16
2023-03-29T23:51:09.849Z,100503.06
2023-03-29T23:53:38.848Z,100496.31
2023-03-29T23:56:06.123Z,100497.69
2023-03-29T23:58:35.994Z,100494.34
